Atlas — SV6729 — position and weather

sailwx.info

Track history (hours):
 
Tides and Currents Weather Stations Pressure Air Temp Water Temp Dewpoint Dewpoint Depression Visibility Wind Speed Wind Dir Waves Ship Positions

Atlas

Last reported at 2016-May-06 02:33 UTC. Time now 2016-May-07 00:26 UTC.
Position N 37°57' E 023°36'.

Length 29 m; draft 5 m.

Type: Tug. MMSI: 239611000.

Date/timePositionNaut miles runAvg speedWind from/ knotsBaromVisibWave heightAir tempDewpointWater temp
2016-May-06 02:33N 37°57' E 023°36'0 0.3
2016-May-06 01:32N 37°57' E 023°35'0 0.3
2016-May-06 00:32N 37°57' E 023°36'0 0.4
2016-May-05 23:33N 37°57' E 023°35'1 1.0
2016-May-05 22:31N 37°58' E 023°36'0 0.2
2016-May-05 21:33N 37°57' E 023°37'2 1.9
2016-May-05 20:33N 37°57' E 023°34'5 5.1
2016-May-05 19:30N 38°02' E 023°30'3 3.3
2016-May-05 18:34N 37°59' E 023°33'3 3.5
2016-May-05 17:33N 37°57' E 023°37'0 0.0
2016-May-05 16:33N 37°57' E 023°37'0 0.0
2016-May-05 15:32N 37°57' E 023°37'0 0.0
2016-May-05 14:31N 37°57' E 023°37'1 1.3
2016-May-05 13:34N 37°56' E 023°37'1 0.8
2016-May-05 12:33N 37°57' E 023°38'1 0.9
2016-May-05 11:33N 37°56' E 023°37'2 0.1
2016-May-04 20:31N 37°57' E 023°35'0 0.3
2016-May-04 19:34N 37°57' E 023°35'1 0.5
2016-May-04 18:29N 37°57' E 023°35'0 0.0
2016-May-04 17:31N 37°57' E 023°35'1 1.0
2016-May-04 16:31N 37°57' E 023°37'0 0.0
2016-May-04 15:29N 37°57' E 023°37'0 0.0
2016-May-04 14:33N 37°57' E 023°37'0 0.3
2016-May-04 13:33N 37°57' E 023°36'0 0.2
2016-May-04 12:30N 37°57' E 023°37'1 1.3
2016-May-04 11:32N 37°56' E 023°36'1 0.1
2016-May-03 19:30N 37°57' E 023°37'4 4.4
2016-May-03 18:32N 38°01' E 023°36'0 0.2
2016-May-03 17:33N 38°01' E 023°35'0 0.1
2016-May-03 16:32N 38°01' E 023°36'4 4.5
2016-May-03 15:33N 37°58' E 023°33'2 1.8
2016-May-03 14:33N 37°57' E 023°35'1 1.1
2016-May-03 13:32N 37°57' E 023°37'1 1.5
2016-May-03 12:33N 37°57' E 023°35'1 0.5
2016-May-03 11:33N 37°57' E 023°35'1 0.1
2016-May-02 21:21N 37°57' E 023°37'1 1.1
2016-May-02 20:34N 37°57' E 023°36'4 4.4
2016-May-02 19:33N 38°01' E 023°35'0 0.3
2016-May-02 18:33N 38°01' E 023°36'0 0.0
2016-May-02 17:33N 38°01' E 023°36'1 0.7
2016-May-02 16:33N 38°01' E 023°35'4 4.0
2016-May-02 15:33N 37°57' E 023°36'0 0.4
2016-May-02 14:27N 37°57' E 023°37'0 0.0
2016-May-02 13:32N 37°57' E 023°37'0 0.0
2016-May-02 12:30N 37°57' E 023°37'0 0.0
2016-May-02 11:31N 37°57' E 023°37'0 0.0
2016-Apr-30 18:16N 37°57' E 023°37'1 1.0
2016-Apr-30 17:33N 37°57' E 023°36'2 1.9
2016-Apr-30 16:27N 37°56' E 023°38'0 0.0
2016-Apr-30 15:32N 37°56' E 023°38'0 0.5
2016-Apr-30 14:33N 37°56' E 023°38'2 1.9
2016-Apr-30 13:32N 37°57' E 023°36'0 0.2
2016-Apr-30 12:33N 37°57' E 023°35'0 0.3
2016-Apr-30 11:31N 37°57' E 023°35'1 0.5
2016-Apr-30 10:30N 37°57' E 023°36'1 0.6
2016-Apr-30 09:29N 37°57' E 023°37'0 0.0
2016-Apr-30 08:32N 37°57' E 023°37'1 0.6
2016-Apr-30 07:32N 37°57' E 023°36'1 0.6
2016-Apr-30 06:23N 37°57' E 023°37'0 0.0
2016-Apr-30 05:32N 37°57' E 023°37'1 0.5
2016-Apr-30 04:33N 37°57' E 023°36'1 0.5
2016-Apr-30 03:26N 37°57' E 023°37'0 0.0
2016-Apr-28 18:29N 37°57' E 023°37'1 0.5
2016-Apr-28 17:30N 37°57' E 023°37'4 3.8
2016-Apr-28 16:33N 37°58' E 023°33'4 3.8
2016-Apr-28 15:33N 38°02' E 023°31'4 3.5
2016-Apr-28 14:24N 38°01' E 023°36'3 3.2
2016-Apr-28 13:33N 38°02' E 023°32'0 0.0
2016-Apr-28 12:31N 38°02' E 023°32'0 0.0
2016-Apr-28 11:29N 38°02' E 023°32'0 0.0
2016-Apr-28 10:32N 38°02' E 023°32'0 0.0
2016-Apr-28 09:30N 38°02' E 023°32'0 0.0
2016-Apr-28 08:33N 38°02' E 023°32'3 3.4
2016-Apr-28 07:34N 37°59' E 023°33'3 3.1
2016-Apr-28 06:32N 37°57' E 023°37'0 0.0
2016-Apr-28 05:33N 37°57' E 023°37'1 0.8
2016-Apr-28 04:33N 37°57' E 023°36'1 0.8
2016-Apr-28 03:29N 37°57' E 023°37'0 0.0
2016-Apr-27 10:27N 37°57' E 023°37'3 3.0
2016-Apr-27 09:33N 37°57' E 023°33'4 4.3
2016-Apr-27 08:33N 38°02' E 023°33'0 0.4
2016-Apr-27 07:32N 38°02' E 023°32'2 2.4
2016-Apr-27 06:33N 38°01' E 023°35'4 4.3
2016-Apr-27 05:33N 37°57' E 023°34'2 1.8
2016-Apr-27 04:33N 37°57' E 023°36'1 0.7
2016-Apr-27 03:32N 37°57' E 023°37'0 0.0
2016-Apr-26 17:29N 37°57' E 023°37'0 0.0
2016-Apr-26 16:33N 37°57' E 023°37'2 1.4
2016-Apr-26 15:27N 37°57' E 023°38'0 0.0
2016-Apr-26 14:33N 37°57' E 023°38'0 0.0
2016-Apr-26 13:32N 37°57' E 023°38'0 0.0
2016-Apr-26 12:32N 37°57' E 023°38'0 0.1
2016-Apr-26 11:33N 37°57' E 023°38'0 0.0
2016-Apr-26 10:29N 37°57' E 023°38'0 0.1
2016-Apr-26 09:22N 37°57' E 023°38'0 0.0
2016-Apr-26 08:31N 37°57' E 023°38'1 1.5
2016-Apr-26 07:32N 37°57' E 023°37'0 0.0
2016-Apr-26 06:33N 37°57' E 023°37'0 0.0
2016-Apr-26 05:31N 37°57' E 023°37'0 0.0
2016-Apr-26 04:30N 37°57' E 023°37'0 0.0
2016-Apr-26 03:30N 37°57' E 023°37'  
Track history (hours):
 
Tides and Currents Weather Stations Pressure Air Temp Water Temp Dewpoint Dewpoint Depression Visibility Wind Speed Wind Dir Waves Ship Positions

Atlas

Last reported at 2016-May-06 02:33 UTC. Time now 2016-May-07 00:26 UTC.
Position N 37°57' E 023°36'.

Length 29 m; draft 5 m.

Type: Tug. MMSI: 239611000.

Date/timePositionNaut miles runAvg speedWind from/ knotsBaromVisibWave heightAir tempDewpointWater temp
2016-May-06 02:33N 37°57' E 023°36'0 0.3
2016-May-06 01:32N 37°57' E 023°35'0 0.3
2016-May-06 00:32N 37°57' E 023°36'0 0.4
2016-May-05 23:33N 37°57' E 023°35'1 1.0
2016-May-05 22:31N 37°58' E 023°36'0 0.2
2016-May-05 21:33N 37°57' E 023°37'2 1.9
2016-May-05 20:33N 37°57' E 023°34'5 5.1
2016-May-05 19:30N 38°02' E 023°30'3 3.3
2016-May-05 18:34N 37°59' E 023°33'3 3.5
2016-May-05 17:33N 37°57' E 023°37'0 0.0
2016-May-05 16:33N 37°57' E 023°37'0 0.0
2016-May-05 15:32N 37°57' E 023°37'0 0.0
2016-May-05 14:31N 37°57' E 023°37'1 1.3
2016-May-05 13:34N 37°56' E 023°37'1 0.8
2016-May-05 12:33N 37°57' E 023°38'1 0.9
2016-May-05 11:33N 37°56' E 023°37'2 0.1
2016-May-04 20:31N 37°57' E 023°35'0 0.3
2016-May-04 19:34N 37°57' E 023°35'1 0.5
2016-May-04 18:29N 37°57' E 023°35'0 0.0
2016-May-04 17:31N 37°57' E 023°35'1 1.0
2016-May-04 16:31N 37°57' E 023°37'0 0.0
2016-May-04 15:29N 37°57' E 023°37'0 0.0
2016-May-04 14:33N 37°57' E 023°37'0 0.3
2016-May-04 13:33N 37°57' E 023°36'0 0.2
2016-May-04 12:30N 37°57' E 023°37'1 1.3
2016-May-04 11:32N 37°56' E 023°36'1 0.1
2016-May-03 19:30N 37°57' E 023°37'4 4.4
2016-May-03 18:32N 38°01' E 023°36'0 0.2
2016-May-03 17:33N 38°01' E 023°35'0 0.1
2016-May-03 16:32N 38°01' E 023°36'4 4.5
2016-May-03 15:33N 37°58' E 023°33'2 1.8
2016-May-03 14:33N 37°57' E 023°35'1 1.1
2016-May-03 13:32N 37°57' E 023°37'1 1.5
2016-May-03 12:33N 37°57' E 023°35'1 0.5
2016-May-03 11:33N 37°57' E 023°35'1 0.1
2016-May-02 21:21N 37°57' E 023°37'1 1.1
2016-May-02 20:34N 37°57' E 023°36'4 4.4
2016-May-02 19:33N 38°01' E 023°35'0 0.3
2016-May-02 18:33N 38°01' E 023°36'0 0.0
2016-May-02 17:33N 38°01' E 023°36'1 0.7
2016-May-02 16:33N 38°01' E 023°35'4 4.0
2016-May-02 15:33N 37°57' E 023°36'0 0.4
2016-May-02 14:27N 37°57' E 023°37'0 0.0
2016-May-02 13:32N 37°57' E 023°37'0 0.0
2016-May-02 12:30N 37°57' E 023°37'0 0.0
2016-May-02 11:31N 37°57' E 023°37'0 0.0
2016-Apr-30 18:16N 37°57' E 023°37'1 1.0
2016-Apr-30 17:33N 37°57' E 023°36'2 1.9
2016-Apr-30 16:27N 37°56' E 023°38'0 0.0
2016-Apr-30 15:32N 37°56' E 023°38'0 0.5
2016-Apr-30 14:33N 37°56' E 023°38'2 1.9
2016-Apr-30 13:32N 37°57' E 023°36'0 0.2
2016-Apr-30 12:33N 37°57' E 023°35'0 0.3
2016-Apr-30 11:31N 37°57' E 023°35'1 0.5
2016-Apr-30 10:30N 37°57' E 023°36'1 0.6
2016-Apr-30 09:29N 37°57' E 023°37'0 0.0
2016-Apr-30 08:32N 37°57' E 023°37'1 0.6
2016-Apr-30 07:32N 37°57' E 023°36'1 0.6
2016-Apr-30 06:23N 37°57' E 023°37'0 0.0
2016-Apr-30 05:32N 37°57' E 023°37'1 0.5
2016-Apr-30 04:33N 37°57' E 023°36'1 0.5
2016-Apr-30 03:26N 37°57' E 023°37'0 0.0
2016-Apr-28 18:29N 37°57' E 023°37'1 0.5
2016-Apr-28 17:30N 37°57' E 023°37'4 3.8
2016-Apr-28 16:33N 37°58' E 023°33'4 3.8
2016-Apr-28 15:33N 38°02' E 023°31'4 3.5
2016-Apr-28 14:24N 38°01' E 023°36'3 3.2
2016-Apr-28 13:33N 38°02' E 023°32'0 0.0
2016-Apr-28 12:31N 38°02' E 023°32'0 0.0
2016-Apr-28 11:29N 38°02' E 023°32'0 0.0
2016-Apr-28 10:32N 38°02' E 023°32'0 0.0
2016-Apr-28 09:30N 38°02' E 023°32'0 0.0
2016-Apr-28 08:33N 38°02' E 023°32'3 3.4
2016-Apr-28 07:34N 37°59' E 023°33'3 3.1
2016-Apr-28 06:32N 37°57' E 023°37'0 0.0
2016-Apr-28 05:33N 37°57' E 023°37'1 0.8
2016-Apr-28 04:33N 37°57' E 023°36'1 0.8
2016-Apr-28 03:29N 37°57' E 023°37'0 0.0
2016-Apr-27 10:27N 37°57' E 023°37'3 3.0
2016-Apr-27 09:33N 37°57' E 023°33'4 4.3
2016-Apr-27 08:33N 38°02' E 023°33'0 0.4
2016-Apr-27 07:32N 38°02' E 023°32'2 2.4
2016-Apr-27 06:33N 38°01' E 023°35'4 4.3
2016-Apr-27 05:33N 37°57' E 023°34'2 1.8
2016-Apr-27 04:33N 37°57' E 023°36'1 0.7
2016-Apr-27 03:32N 37°57' E 023°37'0 0.0
2016-Apr-26 17:29N 37°57' E 023°37'0 0.0
2016-Apr-26 16:33N 37°57' E 023°37'2 1.4
2016-Apr-26 15:27N 37°57' E 023°38'0 0.0
2016-Apr-26 14:33N 37°57' E 023°38'0 0.0
2016-Apr-26 13:32N 37°57' E 023°38'0 0.0
2016-Apr-26 12:32N 37°57' E 023°38'0 0.1
2016-Apr-26 11:33N 37°57' E 023°38'0 0.0
2016-Apr-26 10:29N 37°57' E 023°38'0 0.1
2016-Apr-26 09:22N 37°57' E 023°38'0 0.0
2016-Apr-26 08:31N 37°57' E 023°38'1 1.5
2016-Apr-26 07:32N 37°57' E 023°37'0 0.0
2016-Apr-26 06:33N 37°57' E 023°37'0 0.0
2016-Apr-26 05:31N 37°57' E 023°37'0 0.0
2016-Apr-26 04:30N 37°57' E 023°37'0 0.0
2016-Apr-26 03:30N 37°57' E 023°37'  

Dump ship's entire track history